• Join FlightAware (Why Join?)
  • Login
  • US Flag 
03:27AM EST


 

Airport Tracker/Info


-or-


 

Live Flight TrackerFlight Track Log ✈ CSH9377 ✈ 19-Aug-2014 ✈ ZSPD / PVG - ZYTL / DLC

Flight Track Log - Related Links

Times and Time Zones

All times are in EDT time to prevent confusion due to time zone crossing. See the CSH9377 flight status page for this flight to view local times or setup timezone preferences in your user account.

Time Position Orientation Groundspeed Altitude Reporting Facility
EDT Latitude Longitude Course Direction KTS MPH feet Rate Location/Type
07:17AM 31.6883 121.7762 359° North  Level Estimated
07:18AM 31.7792 121.7734 359° North  Level Estimated
07:19AM 31.8701 121.7707 359° North  Level Estimated
07:20AM 31.9611 121.7680 359° North  Level Estimated
07:21AM 32.0520 121.7652 359° North  Level Estimated
07:22AM 32.1429 121.7625 359° North  Level Estimated
07:23AM 32.2338 121.7597 359° North  Level Estimated
07:24AM 32.3247 121.7570 359° North  Level Estimated
07:25AM 32.4157 121.7542 359° North  Level Estimated
07:26AM 32.5066 121.7515 359° North  Level Estimated
07:27AM 32.5975 121.7487 359° North  Level Estimated
07:28AM 32.6884 121.7459 359° North  Level Estimated
07:29AM 32.7793 121.7431 359° North  Level Estimated
07:30AM 32.8703 121.7403 359° North  Level Estimated
07:31AM 32.9612 121.7375 359° North  Level Estimated
07:32AM 33.0521 121.7347 359° North  Level Estimated
07:33AM 33.1430 121.7319 359° North  Level Estimated
07:34AM 33.2339 121.7291 359° North  Level Estimated
07:35AM 33.3249 121.7263 359° North  Level Estimated
07:36AM 33.4158 121.7235 359° North  Level Estimated
07:37AM 33.5067 121.7207 359° North  Level Estimated
07:38AM 33.5976 121.7178 359° North  Level Estimated
07:39AM 33.6885 121.7150 359° North  Level Estimated
07:40AM 33.7794 121.7121 359° North  Level Estimated
07:41AM 33.8704 121.7093 359° North  Level Estimated
07:42AM 33.9613 121.7064 359° North  Level Estimated
07:43AM 34.0522 121.7036 359° North  Level Estimated
07:44AM 34.1431 121.7007 359° North  Level Estimated
07:45AM 34.2340 121.6978 359° North  Level Estimated
07:46AM 34.3250 121.6949 358° North  Level Estimated
07:47AM 34.4159 121.6920 358° North  Level Estimated
07:48AM 34.5068 121.6891 358° North  Level Estimated
07:49AM 34.5977 121.6862 358° North  Level Estimated
07:50AM 34.6886 121.6833 358° North  Level Estimated
07:51AM 34.7795 121.6804 358° North  Level Estimated
07:52AM 34.8705 121.6775 358° North  Level Estimated
07:53AM 34.9614 121.6746 358° North  Level Estimated
07:54AM 35.0523 121.6716 358° North  Level Estimated
07:55AM 35.1432 121.6687 358° North  Level Estimated
07:56AM 35.2341 121.6657 358° North  Level Estimated
07:57AM 35.3250 121.6628 358° North  Level Estimated
07:58AM 35.4160 121.6598 358° North  Level Estimated
07:59AM 35.5069 121.6569 358° North  Level Estimated
08:00AM 35.5978 121.6539 358° North  Level Estimated
08:01AM 35.6887 121.6509 358° North  Level Estimated
08:02AM 35.7796 121.6479 358° North  Level Estimated
08:03AM 35.8705 121.6449 358° North  Level Estimated
08:04AM 35.9615 121.6419 358° North  Level Estimated
08:05AM 36.0524 121.6389 358° North  Level Estimated
08:06AM 36.1433 121.6359 358° North  Level Estimated
08:07AM 36.2342 121.6329 358° North  Level Estimated
08:08AM 36.3251 121.6299 358° North  Level Estimated
08:09AM 36.4160 121.6268 358° North  Level Estimated
08:10AM 36.5070 121.6238 358° North  Level Estimated
08:11AM 36.5979 121.6207 358° North  Level Estimated
08:12AM 36.6888 121.6177 358° North  Level Estimated
08:13AM 36.7797 121.6146 358° North  Level Estimated
08:14AM 36.8706 121.6115 358° North  Level Estimated
08:15AM 36.9615 121.6084 358° North  Level Estimated
08:16AM 37.0524 121.6053 358° North  Level Estimated
08:17AM 37.1434 121.6023 358° North  Level Estimated
08:18AM 37.2343 121.5992 358° North  Level Estimated
08:19AM 37.3252 121.5960 358° North  Level Estimated
08:20AM 37.4161 121.5929 358° North  Level Estimated
08:21AM 37.5070 121.5898 358° North  Level Estimated
08:22AM 37.5979 121.5867 358° North  Level Estimated
08:23AM 37.6889 121.5835 358° North  Level Estimated
08:24AM 37.7798 121.5804 358° North  Level Estimated
08:25AM 37.8707 121.5772 358° North  Level Estimated
08:26AM 37.9616 121.5741 358° North  Level Estimated
08:27AM 38.0525 121.5709 358° North  Level Estimated
08:28AM 38.1434 121.5677 358° North  Level Estimated
08:29AM 38.2343 121.5645 358° North  Level Estimated
08:30AM 38.3253 121.5613 358° North  Level Estimated
08:31AM 38.4162 121.5581 358° North  Level Estimated